RKPC/CJU METAR and TAF weather

Enter ICAO airport designator
Station Type Date Time Source
RKPC METAR 2019/09/20 21:00 UTC NOAA

RKPC 202100Z 09017KT 9999 -RA BKN025 OVC080 21/18 Q1014 BECMG TL2130 NSW


Station Type Date Time Source
RKPC Decoded METAR 2019/09/20 21:00 UTC NOAA

Cheju International Airport, Korea, South (RKPC) 33-30N 126-30E 28M
Sep 20, 2019 - 05:00 PM EDT / 2019.09.20 2100 UTC
Wind: from the E (090 degrees) at 20 MPH (17 KT):0
Visibility: greater than 7 mile(s):0
Sky conditions: overcast
Weather: light rain
Temperature: 69 F (21 C)
Dew Point: 64 F (18 C)
Relative Humidity: 82%
Pressure (altimeter): 29.94 in. Hg (1014 hPa)
ob: RKPC 202100Z 09017KT 9999 -RA BKN025 OVC080 21/18 Q1014 BECMG TL2130 NSW
cycle: 21

Station Type Date Time Source
RKPC TAF 2019/09/20 18:09 UTC NOAA

TAF TAF RKPC 201700Z 2018/2124 10015G25KT 9999 -RA BKN035 OVC080 TN20/2020Z TX22/2106Z TN21/2112Z
BECMG 2021/2022 07020G35KT 4200 RA SCT010 BKN025 OVC080
BECMG 2105/2106 2800 +RA BKN008 BKN020 OVC050
BECMG 2111/2112 06025G45KT
TEMPO 2114/2118 09020G35KT 4200
BECMG 2121/2122 07027G55KT

Example: see airport list